• Join FlightAware (Why Join?)
  • Login
  • US Flag 
Gobble Gobble! 
12:36PM EST


 

Airport Tracker/Info


-or-


 

Live Flight TrackerFlight Track Log ✈ N765GM ✈ 01-Nov-2013 ✈ KMIA - KTPF

Flight Track Log - Related Links

Times and Time Zones

All times are in EDT time to prevent confusion due to time zone crossing. See the N765GM flight status page for this flight to view local times or setup timezone preferences in your user account.

Time Position Orientation Groundspeed Altitude Reporting Facility
EDT Latitude Longitude Course Direction KTS MPH feet Rate Location/Type
05:10PM 25.8040 -80.2780 85° East 121 139 500  Level FlightAware
05:11PM 25.8170 -80.2580 54° Northeast 119 137 1,600 1,440 Climbing FlightAware
05:12PM 25.8290 -80.2420 50° Northeast 123 142 2,300 1,200 Climbing FlightAware
05:12PM 25.8410 -80.2260 50° Northeast 125 144 3,000 1,260 Climbing FlightAware
05:13PM 25.8630 -80.2250 North 128 147 3,800 900 Climbing FlightAware
05:13PM 25.8830 -80.2270 355° North 153 176 4,000 180 Climbing FlightAware
05:14PM 25.9000 -80.2430 320° Northwest 158 182 4,000  Level FlightAware
05:14PM 25.8960 -80.2640 258° West 161 185 4,000 240 Level FlightAware
05:15PM 25.9220 -80.2820 328° Northwest 164 189 4,300 720 Climbing FlightAware
05:15PM 25.9400 -80.2840 354° North 143 165 4,900 720 Climbing FlightAware
05:16PM 25.9640 -80.2860 356° North 166 191 5,000 60 Climbing FlightAware
05:17PM 25.9930 -80.2940 346° North 167 192 5,000  Level FlightAware
05:17PM 25.9970 -80.3140 283° West 162 186 5,000  Level FlightAware
05:18PM 25.9950 -80.3580 267° West 164 189 5,000  Level FlightAware
05:19PM 25.9930 -80.3840 265° West 166 191 5,000  Level FlightAware
05:19PM 25.9910 -80.4180 266° West 166 191 5,000  Level FlightAware
05:20PM 25.9890 -80.4520 266° West 166 191 5,000  Level FlightAware
05:20PM 25.9880 -80.4820 268° West 163 188 5,000  Level FlightAware
05:21PM 25.9960 -80.5050 291° West 172 198 5,000  Level FlightAware
05:21PM 26.0100 -80.5190 318° Northwest 165 190 5,000  Level FlightAware
05:22PM 26.0270 -80.5390 313° West 167 192 5,000  Level FlightAware
05:22PM 26.0470 -80.5610 315° West 169 194 5,000  Level FlightAware
05:23PM 26.0640 -80.5800 315° West 168 193 5,000  Level FlightAware
05:24PM 26.0840 -80.6010 317° Northwest 168 193 5,000  Level FlightAware
05:24PM 26.1010 -80.6210 313° West 168 193 5,000  Level FlightAware
05:25PM 26.1220 -80.6430 317° Northwest 169 194 5,000  Level FlightAware
05:25PM 26.1390 -80.6620 315° West 167 192 5,000  Level FlightAware
05:26PM 26.1530 -80.6780 314° West 168 193 5,000  Level FlightAware
05:26PM 26.1730 -80.7000 315° West 170 196 5,000 60 Level FlightAware
05:27PM 26.1900 -80.7190 315° West 164 189 5,100 960 Climbing FlightAware
05:27PM 26.2120 -80.7430 316° Northwest 126 145 6,200 1,200 Climbing FlightAware
05:28PM 26.2280 -80.7610 315° West 140 161 6,700 960 Climbing FlightAware
05:28PM 26.2370 -80.7710 315° West 141 162 7,100 840 Climbing FlightAware
05:29PM 26.2480 -80.7840 313° West 141 162 7,400 840 Climbing FlightAware
05:29PM 26.2600 -80.7970 316° Northwest 142 163 7,800 540 Climbing FlightAware
05:30PM 26.2800 -80.8180 317° Northwest 164 189 8,000 180 Climbing FlightAware
05:30PM 26.2910 -80.8310 313° West 164 189 8,000  Level FlightAware
05:31PM 26.3050 -80.8470 314° West 168 193 8,000  Level FlightAware
05:31PM 26.3250 -80.8690 315° West 169 194 8,000  Level FlightAware
05:32PM 26.3420 -80.8880 315° West 171 197 8,000  Level FlightAware
05:32PM 26.3570 -80.9040 316° Northwest 172 198 8,000  Level FlightAware
05:32PM 26.3680 -80.9170 313° West 171 197 8,000  Level FlightAware
05:33PM 26.3830 -80.9330 316° Northwest 169 194 8,000  Level FlightAware
05:33PM 26.4000 -80.9520 315° West 170 196 8,000  Level FlightAware
05:34PM 26.4150 -80.9690 315° West 171 197 8,000  Level FlightAware
05:34PM 26.4290 -80.9850 314° West 178 205 8,000  Level FlightAware
05:35PM 26.4570 -81.0120 319° Northwest 179 206 8,000  Level FlightAware
05:35PM 26.4660 -81.0220 315° West 179 206 8,000  Level FlightAware
05:36PM 26.4840 -81.0400 318° Northwest 178 205 8,000  Level FlightAware
05:36PM 26.5030 -81.0590 318° Northwest 178 205 8,000  Level FlightAware
05:37PM 26.5210 -81.0770 318° Northwest 179 206 8,000  Level FlightAware
05:37PM 26.5370 -81.0930 318° Northwest 178 205 8,000  Level FlightAware
05:38PM 26.5580 -81.1150 317° Northwest 176 203 8,000  Level FlightAware
05:38PM 26.5680 -81.1250 318° Northwest 177 204 8,000  Level FlightAware
05:39PM 26.5920 -81.1510 316° Northwest 177 204 8,000  Level FlightAware
05:39PM 26.6120 -81.1700 320° Northwest 175 201 8,000  Level FlightAware
05:40PM 26.6320 -81.1900 318° Northwest 175 201 8,000  Level FlightAware
05:40PM 26.6530 -81.2120 317° Northwest 175 201 8,000  Level FlightAware
05:41PM 26.6710 -81.2310 317° Northwest 175 201 8,000  Level FlightAware
05:41PM 26.6890 -81.2500 317° Northwest 175 201 8,000  Level FlightAware
05:42PM 26.7120 -81.2730 318° Northwest 174 200 8,000  Level FlightAware
05:43PM 26.7360 -81.2970 318° Northwest 173 199 8,000  Level FlightAware
05:43PM 26.7390 -81.3000 318° Northwest 172 198 8,000  Level FlightAware
05:43PM 26.7690 -81.3310 317° Northwest 171 197 8,000  Level FlightAware
05:44PM 26.7830 -81.3450 318° Northwest 172 198 8,000  Level FlightAware
05:44PM 26.8010 -81.3640 317° Northwest 171 197 8,000  Level FlightAware
05:45PM 26.8150 -81.3780 318° Northwest 171 197 8,000  Level FlightAware
05:45PM 26.8340 -81.3970 318° Northwest 170 196 8,000  Level FlightAware
05:46PM 26.8540 -81.4210 313° West 169 194 8,000  Level FlightAware
05:46PM 26.8680 -81.4380 313° West 169 194 8,000  Level FlightAware
05:47PM 26.8770 -81.4490 313° West 169 194 8,000  Level FlightAware
05:48PM 26.9050 -81.4820 314° West 169 194 8,000  Level FlightAware
05:48PM 26.9210 -81.5010 313° West 169 194 8,000  Level FlightAware
05:49PM 26.9380 -81.5210 314° West 167 192 8,000  Level FlightAware
05:49PM 26.9520 -81.5370 314° West 168 193 8,000  Level FlightAware
05:50PM 26.9690 -81.5580 312° West 169 194 8,000  Level FlightAware
05:50PM 26.9880 -81.5800 314° West 169 194 8,000  Level FlightAware
05:50PM 26.9980 -81.5920 313° West 169 194 8,000  Level FlightAware
05:51PM 27.0160 -81.6130 314° West 169 194 8,000  Level FlightAware
05:51PM 27.0330 -81.6330 314° West 169 194 8,000  Level FlightAware
05:52PM 27.0520 -81.6560 313° West 169 194 8,000  Level FlightAware
05:52PM 27.0640 -81.6700 314° West 169 194 8,000  Level FlightAware
05:53PM 27.0740 -81.6830 311° West 167 192 8,000  Level FlightAware
05:53PM 27.0920 -81.7040 314° West 166 191 8,000  Level FlightAware
05:54PM 27.1030 -81.7170 314° West 168 193 8,000 -360 Level FlightAware
05:54PM 27.1240 -81.7420 313° West 178 205 7,700 -540 Descending FlightAware
05:55PM 27.1310 -81.7500 315° West 180 207 7,600 -540 Descending FlightAware
05:55PM 27.1600 -81.7850 313° West 186 214 7,200 -480 Descending FlightAware
05:56PM 27.1800 -81.8080 314° West 183 211 7,000 -240 Descending FlightAware
05:56PM 27.1930 -81.8240 312° West 179 206 7,000  Level FlightAware
05:57PM 27.2070 -81.8410 313° West 179 206 7,000  Level FlightAware
05:57PM 27.2250 -81.8620 314° West 178 205 7,000  Level FlightAware
05:58PM 27.2390 -81.8790 313° West 177 204 7,000  Level FlightAware
05:58PM 27.2550 -81.8980 313° West 176 203 7,000  Level FlightAware
05:59PM 27.2730 -81.9200 313° West 175 201 7,000  Level FlightAware
05:59PM 27.2870 -81.9360 315° West 175 201 7,000 -240 Level FlightAware
06:00PM 27.3060 -81.9580 314° West 186 214 6,800 -420 Descending FlightAware
06:00PM 27.3220 -81.9770 313° West 190 219 6,600 -480 Descending FlightAware
06:00PM 27.3370 -81.9960 312° West 191 220 6,400 -540 Descending FlightAware
06:01PM 27.3550 -82.0180 313° West 193 222 6,100 -420 Descending FlightAware
06:01PM 27.3720 -82.0380 314° West 188 216 6,000 -360 Descending FlightAware
06:02PM 27.3890 -82.0580 314° West 191 220 5,800 -540 Descending FlightAware
06:02PM 27.4080 -82.0800 314° West 193 222 5,500 -660 Descending FlightAware
06:03PM 27.4180 -82.0920 313° West 193 222 5,300 -660 Descending FlightAware
06:03PM 27.4410 -82.1200 313° West 191 220 4,900 -360 Descending FlightAware
06:04PM 27.4560 -82.1390 312° West 191 220 4,900 -420 Level FlightAware
06:06PM 27.5250 -82.2000 322° Northwest 180 207 4,000 -420 Descending FlightAware
06:06PM 27.5510 -82.2050 350° North 178 205 4,000  Level FlightAware
06:07PM 27.5750 -82.2100 350° North 177 204 4,000  Level FlightAware
06:07PM 27.5980 -82.2140 351° North 176 203 4,000  Level FlightAware
06:07PM 27.6180 -82.2180 350° North 175 201 4,000  Level FlightAware
06:08PM 27.6440 -82.2250 347° North 174 200 4,000  Level FlightAware
06:08PM 27.6660 -82.2300 349° North 174 200 4,000  Level FlightAware
06:09PM 27.6890 -82.2350 349° North 175 201 4,000  Level FlightAware
06:09PM 27.7080 -82.2390 349° North 176 203 4,000  Level FlightAware
06:10PM 27.7340 -82.2450 348° North 178 205 4,000  Level FlightAware
06:10PM 27.7560 -82.2380 16° North 183 211 4,000  Level FlightAware
06:11PM 27.7740 -82.2320 16° North 181 208 4,000  Level FlightAware
06:11PM 27.7950 -82.2240 19° North 180 207 4,000  Level FlightAware
06:12PM 27.8210 -82.2150 17° North 181 208 4,000  Level FlightAware
06:12PM 27.8440 -82.2060 19° North 182 209 4,000 -360 Level FlightAware
06:13PM 27.8780 -82.1940 17° North 189 217 3,600 -720 Descending FlightAware
06:13PM 27.9050 -82.1850 16° North 187 215 3,200 -540 Descending FlightAware
06:14PM 27.9390 -82.1920 350° North 178 205 3,000 -180 Descending FlightAware
06:15PM 27.9660 -82.1980 349° North 178 205 3,000  Level FlightAware
06:15PM 27.9860 -82.2020 350° North 179 206 3,000  Level FlightAware
06:15PM 28.0080 -82.2070 349° North 179 206 3,000  Level FlightAware
06:16PM 28.0310 -82.2140 345° North 174 200 3,000 -420 Level FlightAware
06:16PM 28.0530 -82.2360 319° Northwest 187 215 2,600 -900 Descending FlightAware
06:17PM 28.0710 -82.2530 320° Northwest 189 217 2,100 -1,080 Descending FlightAware
06:17PM 28.0850 -82.2700 313° West 187 215 1,700 -960 Descending FlightAware
06:17PM 28.0870 -82.2770 288° West 179 206 1,600 -180 Descending FlightAware
06:18PM 28.0760 -82.3090 249° West 159 183 1,600  Level FlightAware
06:19PM 28.0670 -82.3280 242° Southwest 154 177 1,600 60 Level FlightAware
06:19PM 28.0410 -82.3390 200° South 149 171 1,700 240 Climbing FlightAware
06:20PM 28.0270 -82.3490 212° Southwest 144 166 1,900 -120 Climbing FlightAware
06:20PM 28.0100 -82.3660 221° Southwest 148 170 1,600 -300 Descending FlightAware
06:21PM 27.9960 -82.3800 221° Southwest 134 154 1,600 120 Level FlightAware
06:21PM 27.9870 -82.3890 221° Southwest 125 144 1,700 -300 Climbing FlightAware
06:21PM 27.9740 -82.4000 217° Southwest 121 139 1,400 -600 Descending FlightAware
06:22PM 27.9600 -82.4120 217° Southwest 117 135 1,100 -600 Descending FlightAware
06:22PM 27.9480 -82.4220 216° Southwest 116 133 800 -660 Descending FlightAware
06:23PM 27.9370 -82.4320 219° Southwest 94 108 500 -720 Descending FlightAware
06:23PM 27.9340 -82.4350 221° Southwest 91 105 400 -180 Descending FlightAware
06:23PM 27.9260 -82.4410 214° Southwest 91 105 400  Level FlightAware